AirNav   Air Wisconsin pilot careers
 
 411 users online  

AZ38 Rittenhouse Army Heliport
Queen Creek, Arizona, USA

GOING TO QUEEN CREEK?


FAA INFORMATION EFFECTIVE 31 JANUARY 2019

Location

FAA Identifier: AZ38
Lat/Long: 33-15-05.0000N / 111-31-05.0000W
33-15.083333N / 111-31.083333W
33.2513889 / -111.5180556
(estimated)
Elevation: 1550 ft. / 472 m (estimated)
Variation: 12E (1995)
From city: 10 miles E of QUEEN CREEK, AZ
Time zone: UTC -7 (year round; does not observe DST)
Zip code: 85242

Heliport Operations

Heliport use: Private use. Permission required prior to landing
Activation date: 08/1999
Control tower: no
ARTCC: ALBUQUERQUE CENTER
FSS: PRESCOTT FLIGHT SERVICE STATION
Attendance: 
Segmented circle: no

Heliport Communications

WX AWOS-3 at IWA (8 nm NW): 133.5 (480-988-9428)
WX AWOS-3PT at CHD (15 nm W): 128.325 (480-814-9952)
WX ASOS at FFZ (16 nm NW): 118.25 (480-641-4111)
WX AWOS-3PT at P08 (19 nm S): 119.350 (520-723-4920)

Nearby radio navigation aids

VOR radial/distance  VOR name  Freq  Var
IWAr102/7.4WILLIE VORTAC113.3013E
PXRr104/25.1PHOENIX VORTAC115.6012E
TFDr030/29.4STANFIELD VORTAC114.8012E

 
NDB name  Hdg/Dist  Freq  Var  ID
CHANDLER082/14.640712ECHD -.-. .... -..

Heliport Services

Runway Information

Runway 12/30

Dimensions: 1500 x 50 ft. / 457 x 15 m
Surface: asphalt
RY 12/30 POTHOLES AND LOOSE GRAVEL ON RY.
RUNWAY 12  RUNWAY 30
Traffic pattern: leftleft

Heliport Ownership and Management from official FAA records

Ownership: U.S. Army
Owner: AZ ARMY NATIONAL GUARD
5363 E. MCDOWELL ROAD
PHOENIX, AZ 85224
Phone 602-267-2794
Manager: LTC JACK T. OGLE
Phone 602-267-2794

Additional Remarks

MILITARY HELICOPTER TRAINING STAGE FIELD OPNS DAY AND NIGHT.
24 HR PPR FOR ALL ACFT CALL C602 267-2794, DSN 853-2796.
FOR CD CTC PHOENIX APCH AT 602-306-2565.

Instrument Procedures

There are no published instrument procedures at AZ38.

Some nearby airports with instrument procedures:

KIWA - Phoenix-Mesa Gateway Airport (8 nm NW)
KCHD - Chandler Municipal Airport (15 nm W)
KFFZ - Falcon Field Airport (16 nm NW)
P08 - Coolidge Municipal Airport (19 nm S)
P19 - Stellar Airpark (20 nm W)
 
Loc | Ops | Rwys | IFR | FBO | Links
Com | Nav | Svcs | Stats | Notes
Area around AZ38 (Rittenhouse Army Heliport)
 
Road maps at: MapQuest Bing Google
 
Aerial photo
WARNING: Photo may not be current or correct
Aerial photo of AZ38 (Rittenhouse Army Heliport)
Do you have a better or more recent aerial photo of Rittenhouse Army Heliport that you would like to share? If so, please send us your photo.

 
Sectional chart

 
Airport distance calculator
Flying to Rittenhouse Army Heliport? Find the distance to fly.

From to AZ38

Sunrise and sunset
Times for 23-Feb-2019
 Local
(UTC-7)
 Zulu
(UTC)
Morning civil twilight06:3713:37
Sunrise07:0214:02
Sunset18:1701:17
Evening civil twilight18:4201:42

Current date and time
Zulu (UTC)  23-Feb-2019 11:55:10
Local (UTC-7)  23-Feb-2019 04:55:10
 
METAR
KIWA 
7nm NW 
231135Z AUTO 10006KT 10SM CLR 01/01 A3023 RMK AO2 PWINO T00120005
KCHD 
15nm W 
230347Z 05006KT 7SM BKN040 06/05 A3008 RMK LAST
KFFZ 
16nm NW 
231137Z AUTO 05005KT 10SM SCT014 03/02 A3023 RMK AO2 T00330017
KP08 
19nm S 
231135Z AUTO 13004KT 10SM CLR 01/M00 A3024 RMK AO2
TAF
KIWA 
7nm NW 
230542Z 2306/2406 12005KT P6SM FEW060 FEW250 FM232200 28004KT P6SM FEW250 AMD LTD TO CLD VIS AND WIND TIL 231200
NOTAMs
Click for the latest NOTAMs
NOTAMs are issued by the DoD/FAA and will open in a separate window not controlled by AirNav.

 

 
 

Would you like to see your business listed on this page?

 If your business provides an interesting product or service to pilots, flight crews, aircraft, or users of the Rittenhouse Army Heliport, you should consider listing it here.  To start the listing process, click on the button below
 
Add a business
 

Other Pages about Rittenhouse Army Heliport

Update a link
 
Copyright © AirNav, LLC. All rights reserved. Privacy Policy  Contact